Costa Neoclassica — ICIC — position and weather

sailwx.info

Track history (hours):
 
Tides and Currents Weather Stations Pressure Air Temp Water Temp Dewpoint Dewpoint Depression Visibility Wind Speed Wind Dir Waves Ship Positions

Costa Neoclassica

Last reported at 2017-Aug-20 12:00 UTC. Time now 2017-Aug-20 13:39 UTC.
Position N 39°18' E 020°12'.

Length 220 m; draft 7.6 m.

Type: Passenger vessel. MMSI: 247819000.

Wind at 8 knots

Barometer 1013.0 mb
Air temperature 27.0 ° C
Visibility: greater than 27.0 NM
Dewpoint 22.8 ° C
Water temperature 24.0 ° C

Date/timePositionNaut miles runAvg speedWind from/ knotsBaromVisibWave heightAir tempDewpointWater temp
2017-Aug-20 12:00N 39°18' E 020°12'30 3.7 1013.027.0 27.022.824.0
2017-Aug-20 03:41N 39°47' E 019°58'815.9
2017-Aug-20 03:09N 39°53' E 019°51'317.6
2017-Aug-20 03:00N 39°55' E 019°49'1217.5
2017-Aug-20 02:19N 40°02' E 019°36'1237.3
2017-Aug-20 02:00N 39°54' E 019°48'2558.9 360 / 101013.027.0 28.025.324.0
2017-Aug-20 01:34N 40°09' E 019°22'117.1
2017-Aug-20 01:30N 40°10' E 019°21'917.1
2017-Aug-20 01:00N 40°16' E 019°13'917.5
2017-Aug-20 00:31N 40°21' E 019°04'816.3
2017-Aug-20 00:00N 40°26' E 018°55'815.5
2017-Aug-19 23:31N 40°31' E 018°47'815.5
2017-Aug-19 23:00N 40°35' E 018°39'815.8
2017-Aug-19 22:30N 40°40' E 018°31'815.8
2017-Aug-19 22:00N 40°45' E 018°22'815.8
2017-Aug-19 21:30N 40°49' E 018°14'815.6
2017-Aug-19 20:59N 40°54' E 018°05'815.7
2017-Aug-19 20:30N 40°57' E 017°56'815.6
2017-Aug-19 19:59N 40°60' E 017°46'815.5
2017-Aug-19 19:30N 41°02' E 017°36'1215.9
2017-Aug-19 18:43N 41°05' E 017°20'615.7
2017-Aug-19 18:20N 41°07' E 017°12'33 2.0
2017-Aug-19 02:00N 40°48' E 017°48'723.8 1014.027.0 26.024.624.0
2017-Aug-19 01:41N 40°49' E 017°58'517.5
2017-Aug-19 01:24N 40°47' E 018°03'717.4
2017-Aug-19 01:00N 40°43' E 018°11'1217.1
2017-Aug-19 00:19N 40°34' E 018°21'617.2
2017-Aug-19 00:00N 40°30' E 018°25'1417.2
2017-Aug-18 23:13N 40°19' E 018°35'717.4
2017-Aug-18 22:47N 40°12' E 018°41'1117.3
2017-Aug-18 22:08N 40°02' E 018°47'217.7
2017-Aug-18 22:00N 40°00' E 018°49'917.5
2017-Aug-18 21:30N 39°53' E 018°55'917.2
2017-Aug-18 21:01N 39°46' E 019°01'917.3
2017-Aug-18 20:30N 39°38' E 019°07'1617.2
2017-Aug-18 19:34N 39°24' E 019°16'617.0
2017-Aug-18 19:11N 39°18' E 019°20'1117.4
2017-Aug-18 18:33N 39°09' E 019°27'317.6
2017-Aug-18 18:22N 39°06' E 019°29'617.5
2017-Aug-18 18:00N 39°00' E 019°33'917.5
2017-Aug-18 17:30N 38°53' E 019°39'917.4
2017-Aug-18 17:00N 38°45' E 019°44'1317.0
2017-Aug-18 16:13N 38°34' E 019°54'21916.6
2017-Aug-18 03:00N 36°18' E 023°30'22919.3 360 / 321013.027.0 24.018.020.0
2017-Aug-17 15:07N 36°27' E 028°14'3 0.3
2017-Aug-17 03:00N 36°24' E 028°12'97 7.4 270 / 101013.0 25.017.5
2017-Aug-16 14:00N 36°24' E 026°12'45 3.2 270 / 201013.027.0 30.026.0
2017-Aug-16 00:00N 36°12' E 027°06'83 7.6 320 / 20 10.8 26.021.824.0
2017-Aug-15 13:00N 36°24' E 025°24'109 7.1 360 / 321012.027.0 27.018.124.0
2017-Aug-14 21:41N 37°36' E 023°42'319.1
2017-Aug-14 21:30N 37°40' E 023°41'1019.1
2017-Aug-14 21:01N 37°49' E 023°37'815.5
2017-Aug-14 20:31N 37°56' E 023°38'0 0.8
2017-Aug-14 20:00N 37°56' E 023°38'0 0.0
2017-Aug-14 19:30N 37°56' E 023°38'0 0.0
2017-Aug-14 19:00N 37°56' E 023°38'0 0.0
2017-Aug-14 18:30N 37°56' E 023°38'0 0.0
2017-Aug-14 18:00N 37°56' E 023°38'0 0.0
2017-Aug-14 17:27N 37°56' E 023°38'0 0.0
2017-Aug-14 17:00N 37°56' E 023°38'0 0.0
2017-Aug-14 16:30N 37°56' E 023°38'0 0.0
2017-Aug-14 16:00N 37°56' E 023°38'0 0.0
2017-Aug-14 15:30N 37°56' E 023°38'0 0.0
2017-Aug-14 15:00N 37°56' E 023°38'0 0.0
2017-Aug-14 14:30N 37°56' E 023°38'0 0.0
2017-Aug-14 14:00N 37°56' E 023°38'0 0.0
2017-Aug-14 13:30N 37°56' E 023°38'0 0.0
2017-Aug-14 13:00N 37°56' E 023°38'3312.1
2017-Aug-14 13:00N 37°54' E 023°36'3 5.3 180 / 101013.027.0 34.028.9
2017-Aug-14 12:27N 37°56' E 023°38'0 0.0
2017-Aug-14 12:00N 37°56' E 023°38'0 0.0
2017-Aug-14 11:30N 37°56' E 023°38'0 0.0
2017-Aug-14 11:00N 37°56' E 023°38'0 0.8
2017-Aug-14 10:30N 37°56' E 023°38'2 3.2
2017-Aug-14 10:00N 37°55' E 023°37'713.1
2017-Aug-14 09:31N 37°49' E 023°41'918.5
2017-Aug-14 09:00N 37°41' E 023°45'918.1
2017-Aug-14 08:30N 37°31' E 023°45'2817.7
2017-Aug-14 06:57N 37°06' E 023°32'918.3
2017-Aug-14 06:26N 36°58' E 023°25'6712.3
2017-Aug-14 01:00N 36°18' E 022°18'18516.8 330 / 10 27.0 27.021.324.0
2017-Aug-13 14:00N 38°54' E 020°12'159 4.4 330 / 321010.027.0 26.021.823.0
2017-Aug-12 02:04N 40°51' E 017°51'618.0
2017-Aug-12 01:45N 40°48' E 017°58'817.9
2017-Aug-12 01:19N 40°44' E 018°07'9115.0
2017-Aug-11 19:13N 39°27' E 019°11'314.6
2017-Aug-11 19:00N 39°24' E 019°12'714.2
2017-Aug-11 18:30N 39°18' E 019°17'2414.4
2017-Aug-11 16:52N 38°57' E 019°30'615.0
2017-Aug-11 16:30N 38°52' E 019°34'715.0
2017-Aug-11 16:00N 38°45' E 019°38'715.0
2017-Aug-11 15:30N 38°39' E 019°43'815.1
2017-Aug-11 15:00N 38°32' E 019°47'1515.1
2017-Aug-11 14:01N 38°19' E 019°56'815.3
2017-Aug-11 13:30N 38°12' E 020°00'1015.3
2017-Aug-11 12:50N 38°03' E 020°06'515.3
2017-Aug-11 12:30N 37°58' E 020°09'815.3
2017-Aug-11 12:01N 37°51' E 020°13'815.1
2017-Aug-11 11:29N 37°44' E 020°18'2115.0
2017-Aug-11 10:06N 37°26' E 020°30'215.4
2017-Aug-11 09:59N 37°24' E 020°31'915.0
2017-Aug-11 09:24N 37°16' E 020°36'1314.7
2017-Aug-11 08:30N 37°08' E 020°48'815.3
2017-Aug-11 08:00N 37°04' E 020°56'815.2
2017-Aug-11 07:30N 36°59' E 021°04'4215.4
2017-Aug-11 04:45N 36°36' E 021°48'1315.5
2017-Aug-11 03:54N 36°31' E 022°03'3210.9
2017-Aug-11 01:00N 36°24' E 022°42'   330 / 10 27.0 27.024.324.0
Track history (hours):
 
Tides and Currents Weather Stations Pressure Air Temp Water Temp Dewpoint Dewpoint Depression Visibility Wind Speed Wind Dir Waves Ship Positions

Costa Neoclassica

Last reported at 2017-Aug-20 12:00 UTC. Time now 2017-Aug-20 13:39 UTC.
Position N 39°18' E 020°12'.

Length 220 m; draft 7.6 m.

Type: Passenger vessel. MMSI: 247819000.

Wind at 8 knots

Barometer 1013.0 mb
Air temperature 27.0 ° C
Visibility: greater than 27.0 NM
Dewpoint 22.8 ° C
Water temperature 24.0 ° C

Date/timePositionNaut miles runAvg speedWind from/ knotsBaromVisibWave heightAir tempDewpointWater temp
2017-Aug-20 12:00N 39°18' E 020°12'30 3.7 1013.027.0 27.022.824.0
2017-Aug-20 03:41N 39°47' E 019°58'815.9
2017-Aug-20 03:09N 39°53' E 019°51'317.6
2017-Aug-20 03:00N 39°55' E 019°49'1217.5
2017-Aug-20 02:19N 40°02' E 019°36'1237.3
2017-Aug-20 02:00N 39°54' E 019°48'2558.9 360 / 101013.027.0 28.025.324.0
2017-Aug-20 01:34N 40°09' E 019°22'117.1
2017-Aug-20 01:30N 40°10' E 019°21'917.1
2017-Aug-20 01:00N 40°16' E 019°13'917.5
2017-Aug-20 00:31N 40°21' E 019°04'816.3
2017-Aug-20 00:00N 40°26' E 018°55'815.5
2017-Aug-19 23:31N 40°31' E 018°47'815.5
2017-Aug-19 23:00N 40°35' E 018°39'815.8
2017-Aug-19 22:30N 40°40' E 018°31'815.8
2017-Aug-19 22:00N 40°45' E 018°22'815.8
2017-Aug-19 21:30N 40°49' E 018°14'815.6
2017-Aug-19 20:59N 40°54' E 018°05'815.7
2017-Aug-19 20:30N 40°57' E 017°56'815.6
2017-Aug-19 19:59N 40°60' E 017°46'815.5
2017-Aug-19 19:30N 41°02' E 017°36'1215.9
2017-Aug-19 18:43N 41°05' E 017°20'615.7
2017-Aug-19 18:20N 41°07' E 017°12'33 2.0
2017-Aug-19 02:00N 40°48' E 017°48'723.8 1014.027.0 26.024.624.0
2017-Aug-19 01:41N 40°49' E 017°58'517.5
2017-Aug-19 01:24N 40°47' E 018°03'717.4
2017-Aug-19 01:00N 40°43' E 018°11'1217.1
2017-Aug-19 00:19N 40°34' E 018°21'617.2
2017-Aug-19 00:00N 40°30' E 018°25'1417.2
2017-Aug-18 23:13N 40°19' E 018°35'717.4
2017-Aug-18 22:47N 40°12' E 018°41'1117.3
2017-Aug-18 22:08N 40°02' E 018°47'217.7
2017-Aug-18 22:00N 40°00' E 018°49'917.5
2017-Aug-18 21:30N 39°53' E 018°55'917.2
2017-Aug-18 21:01N 39°46' E 019°01'917.3
2017-Aug-18 20:30N 39°38' E 019°07'1617.2
2017-Aug-18 19:34N 39°24' E 019°16'617.0
2017-Aug-18 19:11N 39°18' E 019°20'1117.4
2017-Aug-18 18:33N 39°09' E 019°27'317.6
2017-Aug-18 18:22N 39°06' E 019°29'617.5
2017-Aug-18 18:00N 39°00' E 019°33'917.5
2017-Aug-18 17:30N 38°53' E 019°39'917.4
2017-Aug-18 17:00N 38°45' E 019°44'1317.0
2017-Aug-18 16:13N 38°34' E 019°54'21916.6
2017-Aug-18 03:00N 36°18' E 023°30'22919.3 360 / 321013.027.0 24.018.020.0
2017-Aug-17 15:07N 36°27' E 028°14'3 0.3
2017-Aug-17 03:00N 36°24' E 028°12'97 7.4 270 / 101013.0 25.017.5
2017-Aug-16 14:00N 36°24' E 026°12'45 3.2 270 / 201013.027.0 30.026.0
2017-Aug-16 00:00N 36°12' E 027°06'83 7.6 320 / 20 10.8 26.021.824.0
2017-Aug-15 13:00N 36°24' E 025°24'109 7.1 360 / 321012.027.0 27.018.124.0
2017-Aug-14 21:41N 37°36' E 023°42'319.1
2017-Aug-14 21:30N 37°40' E 023°41'1019.1
2017-Aug-14 21:01N 37°49' E 023°37'815.5
2017-Aug-14 20:31N 37°56' E 023°38'0 0.8
2017-Aug-14 20:00N 37°56' E 023°38'0 0.0
2017-Aug-14 19:30N 37°56' E 023°38'0 0.0
2017-Aug-14 19:00N 37°56' E 023°38'0 0.0
2017-Aug-14 18:30N 37°56' E 023°38'0 0.0
2017-Aug-14 18:00N 37°56' E 023°38'0 0.0
2017-Aug-14 17:27N 37°56' E 023°38'0 0.0
2017-Aug-14 17:00N 37°56' E 023°38'0 0.0
2017-Aug-14 16:30N 37°56' E 023°38'0 0.0
2017-Aug-14 16:00N 37°56' E 023°38'0 0.0
2017-Aug-14 15:30N 37°56' E 023°38'0 0.0
2017-Aug-14 15:00N 37°56' E 023°38'0 0.0
2017-Aug-14 14:30N 37°56' E 023°38'0 0.0
2017-Aug-14 14:00N 37°56' E 023°38'0 0.0
2017-Aug-14 13:30N 37°56' E 023°38'0 0.0
2017-Aug-14 13:00N 37°56' E 023°38'3312.1
2017-Aug-14 13:00N 37°54' E 023°36'3 5.3 180 / 101013.027.0 34.028.9
2017-Aug-14 12:27N 37°56' E 023°38'0 0.0
2017-Aug-14 12:00N 37°56' E 023°38'0 0.0
2017-Aug-14 11:30N 37°56' E 023°38'0 0.0
2017-Aug-14 11:00N 37°56' E 023°38'0 0.8
2017-Aug-14 10:30N 37°56' E 023°38'2 3.2
2017-Aug-14 10:00N 37°55' E 023°37'713.1
2017-Aug-14 09:31N 37°49' E 023°41'918.5
2017-Aug-14 09:00N 37°41' E 023°45'918.1
2017-Aug-14 08:30N 37°31' E 023°45'2817.7
2017-Aug-14 06:57N 37°06' E 023°32'918.3
2017-Aug-14 06:26N 36°58' E 023°25'6712.3
2017-Aug-14 01:00N 36°18' E 022°18'18516.8 330 / 10 27.0 27.021.324.0
2017-Aug-13 14:00N 38°54' E 020°12'159 4.4 330 / 321010.027.0 26.021.823.0
2017-Aug-12 02:04N 40°51' E 017°51'618.0
2017-Aug-12 01:45N 40°48' E 017°58'817.9
2017-Aug-12 01:19N 40°44' E 018°07'9115.0
2017-Aug-11 19:13N 39°27' E 019°11'314.6
2017-Aug-11 19:00N 39°24' E 019°12'714.2
2017-Aug-11 18:30N 39°18' E 019°17'2414.4
2017-Aug-11 16:52N 38°57' E 019°30'615.0
2017-Aug-11 16:30N 38°52' E 019°34'715.0
2017-Aug-11 16:00N 38°45' E 019°38'715.0
2017-Aug-11 15:30N 38°39' E 019°43'815.1
2017-Aug-11 15:00N 38°32' E 019°47'1515.1
2017-Aug-11 14:01N 38°19' E 019°56'815.3
2017-Aug-11 13:30N 38°12' E 020°00'1015.3
2017-Aug-11 12:50N 38°03' E 020°06'515.3
2017-Aug-11 12:30N 37°58' E 020°09'815.3
2017-Aug-11 12:01N 37°51' E 020°13'815.1
2017-Aug-11 11:29N 37°44' E 020°18'2115.0
2017-Aug-11 10:06N 37°26' E 020°30'215.4
2017-Aug-11 09:59N 37°24' E 020°31'915.0
2017-Aug-11 09:24N 37°16' E 020°36'1314.7
2017-Aug-11 08:30N 37°08' E 020°48'815.3
2017-Aug-11 08:00N 37°04' E 020°56'815.2
2017-Aug-11 07:30N 36°59' E 021°04'4215.4
2017-Aug-11 04:45N 36°36' E 021°48'1315.5
2017-Aug-11 03:54N 36°31' E 022°03'3210.9
2017-Aug-11 01:00N 36°24' E 022°42'   330 / 10 27.0 27.024.324.0

Dump ship's entire track history